createdAt,value
2019-05-03T00:02:28.933Z,6.23
2019-05-03T00:05:13.385Z,7.30
2019-05-03T00:07:43.710Z,5.77
2019-05-03T00:10:13.284Z,6.33
2019-05-03T00:12:42.270Z,7.33
2019-05-03T00:15:13.557Z,7.73
2019-05-03T00:17:42.447Z,6.83
2019-05-03T00:20:11.699Z,6.17
2019-05-03T00:22:41.863Z,7.73
2019-05-03T00:25:12.742Z,7.97
2019-05-03T00:27:42.786Z,6.60
2019-05-03T00:30:13.811Z,8.30
2019-05-03T00:32:42.865Z,6.70
2019-05-03T00:35:16.253Z,6.10
2019-05-03T00:37:49.342Z,9.40
2019-05-03T00:40:32.260Z,6.57
2019-05-03T00:43:02.319Z,7.53
2019-05-03T00:45:31.887Z,5.93
2019-05-03T00:48:01.889Z,8.43
2019-05-03T00:50:32.125Z,7.97
2019-05-03T00:53:02.345Z,7.77
2019-05-03T00:55:32.846Z,9.40
2019-05-03T00:58:02.498Z,7.20
2019-05-03T01:00:32.396Z,10.97
2019-05-03T01:03:02.282Z,7.70
2019-05-03T01:05:33.111Z,8.30
2019-05-03T01:08:02.349Z,9.23
2019-05-03T01:10:32.948Z,11.50
2019-05-03T01:13:01.782Z,10.50
2019-05-03T01:15:32.301Z,10.37
2019-05-03T01:18:02.829Z,9.03
2019-05-03T01:20:33.154Z,10.60
2019-05-03T01:23:02.138Z,10.00
2019-05-03T01:25:35.206Z,14.03
2019-05-03T01:28:02.181Z,9.70
2019-05-03T01:30:32.086Z,12.17
2019-05-03T01:33:02.800Z,11.50
2019-05-03T01:35:32.378Z,10.30
2019-05-03T01:38:02.580Z,10.63
2019-05-03T01:40:32.635Z,11.83
2019-05-03T01:43:02.368Z,12.07
2019-05-03T01:45:32.013Z,14.43
2019-05-03T01:48:02.524Z,10.67
2019-05-03T01:50:33.959Z,10.73
2019-05-03T01:53:08.229Z,13.50
2019-05-03T01:55:55.366Z,13.40
2019-05-03T01:58:25.017Z,11.53
2019-05-03T02:00:59.089Z,13.90
2019-05-03T02:03:32.632Z,11.83
2019-05-03T02:06:02.430Z,13.77
2019-05-03T02:08:33.176Z,15.40
2019-05-03T02:11:02.290Z,12.70
2019-05-03T02:13:33.108Z,13.17
2019-05-03T02:16:02.411Z,11.10
2019-05-03T02:18:32.014Z,13.53
2019-05-03T02:21:01.673Z,12.13
2019-05-03T02:23:31.960Z,11.67
2019-05-03T02:26:03.070Z,14.43
2019-05-03T02:28:32.707Z,11.83
2019-05-03T02:31:03.575Z,13.30
2019-05-03T02:33:33.057Z,13.70
2019-05-03T02:36:03.654Z,12.17
2019-05-03T02:38:33.828Z,12.07
2019-05-03T02:41:05.072Z,16.47
2019-05-03T02:43:36.436Z,12.50
2019-05-03T02:46:10.403Z,13.80
2019-05-03T02:48:45.708Z,14.67
2019-05-03T02:51:15.625Z,13.83
2019-05-03T02:53:45.734Z,12.40
2019-05-03T02:56:21.872Z,14.40
2019-05-03T02:58:46.087Z,17.00
2019-05-03T03:01:16.549Z,12.97
2019-05-03T03:03:46.307Z,12.33
2019-05-03T03:06:19.224Z,13.77
2019-05-03T03:08:52.177Z,15.00
2019-05-03T03:11:22.650Z,12.90
2019-05-03T03:13:55.213Z,11.00
2019-05-03T03:16:27.090Z,13.13
2019-05-03T03:18:58.541Z,9.80
2019-05-03T03:21:32.042Z,11.37
2019-05-03T03:24:06.134Z,10.13
2019-05-03T03:26:42.778Z,10.03
2019-05-03T03:29:16.158Z,8.97
2019-05-03T03:31:58.412Z,10.83
2019-05-03T03:34:37.955Z,10.47
2019-05-03T03:37:10.046Z,12.63
2019-05-03T03:39:36.445Z,8.43
2019-05-03T03:42:06.083Z,8.27
2019-05-03T03:44:36.652Z,8.17
2019-05-03T03:47:07.642Z,7.87
2019-05-03T03:49:39.019Z,7.80
2019-05-03T03:52:09.557Z,7.10
2019-05-03T03:54:40.666Z,7.97
2019-05-03T03:57:12.505Z,7.43
2019-05-03T03:59:42.130Z,7.10
2019-05-03T04:02:11.125Z,10.40
2019-05-03T04:04:40.936Z,6.40
2019-05-03T04:07:10.954Z,5.43
2019-05-03T04:09:40.928Z,5.60
2019-05-03T04:12:10.784Z,5.90
2019-05-03T04:14:48.077Z,5.57
2019-05-03T04:17:26.324Z,5.20
2019-05-03T04:19:58.393Z,4.83
2019-05-03T04:22:27.339Z,4.33
2019-05-03T04:24:56.231Z,3.97
2019-05-03T04:27:27.608Z,3.50
2019-05-03T04:29:57.375Z,3.77
2019-05-03T04:32:29.027Z,3.10
2019-05-03T04:34:57.457Z,3.67
2019-05-03T04:37:26.995Z,3.37
2019-05-03T04:39:56.634Z,2.93
2019-05-03T04:42:25.908Z,2.57
2019-05-03T04:44:56.248Z,4.23
2019-05-03T04:47:26.660Z,2.20
2019-05-03T04:49:56.402Z,2.30
2019-05-03T04:52:26.099Z,1.77
2019-05-03T04:54:59.836Z,3.37
2019-05-03T04:57:39.622Z,1.30
2019-05-03T04:59:59.268Z,2.30
2019-05-03T05:02:28.127Z,1.60
2019-05-03T05:04:57.119Z,1.30
2019-05-03T05:07:26.446Z,1.70
2019-05-03T05:09:56.483Z,2.00
2019-05-03T05:12:26.259Z,1.80
2019-05-03T05:14:56.486Z,1.63
2019-05-03T05:17:27.209Z,1.70
2019-05-03T05:19:57.735Z,1.87
2019-05-03T05:22:35.003Z,2.20
2019-05-03T05:25:09.237Z,2.50
2019-05-03T05:27:48.862Z,1.60
2019-05-03T05:30:12.383Z,1.97
2019-05-03T05:32:41.337Z,2.03
2019-05-03T05:35:10.330Z,2.60
2019-05-03T05:37:39.222Z,2.40
2019-05-03T05:40:08.829Z,1.80
2019-05-03T05:42:37.719Z,1.77
2019-05-03T05:45:08.142Z,2.27
2019-05-03T05:47:41.334Z,4.57
2019-05-03T05:50:14.854Z,2.43
2019-05-03T05:52:44.824Z,2.00
2019-05-03T05:55:18.961Z,1.93
2019-05-03T05:58:01.263Z,2.53
2019-05-03T06:00:33.440Z,2.47
2019-05-03T06:03:02.319Z,2.20
2019-05-03T06:05:31.222Z,1.50
2019-05-03T06:08:04.928Z,1.50
2019-05-03T06:10:35.455Z,1.50
2019-05-03T06:13:15.818Z,1.40
2019-05-03T06:15:55.253Z,1.67
2019-05-03T06:18:28.648Z,1.50
2019-05-03T06:21:14.823Z,1.80
2019-05-03T06:23:48.959Z,1.10
2019-05-03T06:26:36.078Z,1.90
2019-05-03T06:29:09.008Z,1.50
2019-05-03T06:31:45.421Z,1.27
2019-05-03T06:34:14.948Z,2.27
2019-05-03T06:36:46.183Z,1.60
2019-05-03T06:39:15.430Z,3.00
2019-05-03T06:41:45.092Z,1.30
2019-05-03T06:44:14.499Z,1.50
2019-05-03T06:46:51.779Z,3.10
2019-05-03T06:49:20.672Z,1.40
2019-05-03T06:51:50.007Z,1.50
2019-05-03T06:54:20.565Z,1.97
2019-05-03T06:56:50.107Z,1.67
2019-05-03T06:59:29.744Z,2.47
2019-05-03T07:02:15.634Z,3.30
2019-05-03T07:04:58.561Z,2.00
2019-05-03T07:07:29.089Z,1.73
2019-05-03T07:10:05.661Z,1.93
2019-05-03T07:12:39.261Z,1.67
2019-05-03T07:15:08.151Z,1.40
2019-05-03T07:17:37.042Z,1.00
2019-05-03T07:20:07.289Z,1.03
2019-05-03T07:22:36.145Z,1.10
2019-05-03T07:25:06.374Z,1.10
2019-05-03T07:27:35.277Z,1.30
2019-05-03T07:30:06.828Z,1.00
2019-05-03T07:32:37.350Z,0.93
2019-05-03T07:35:07.982Z,1.20
2019-05-03T07:37:36.873Z,1.00
2019-05-03T07:40:09.042Z,0.77
2019-05-03T07:42:37.931Z,0.90
2019-05-03T07:45:09.044Z,0.70
2019-05-03T07:47:37.967Z,1.00
2019-05-03T07:50:07.778Z,1.90
2019-05-03T07:52:36.670Z,0.90
2019-05-03T07:55:06.789Z,1.20
2019-05-03T07:57:46.431Z,1.00
2019-05-03T08:00:18.497Z,3.40
2019-05-03T08:02:47.381Z,0.87
2019-05-03T08:05:16.289Z,1.07
2019-05-03T08:07:46.275Z,0.80
2019-05-03T08:10:17.241Z,0.83
2019-05-03T08:12:46.228Z,1.00
2019-05-03T08:15:15.698Z,1.50
2019-05-03T08:17:45.238Z,0.67
2019-05-03T08:20:14.732Z,0.70
2019-05-03T08:22:44.816Z,1.00
2019-05-03T08:25:15.029Z,1.00
2019-05-03T08:27:44.594Z,1.23
2019-05-03T08:30:16.450Z,1.10
2019-05-03T08:32:55.991Z,4.33
2019-05-03T08:35:26.519Z,1.03
2019-05-03T08:37:56.947Z,1.40
2019-05-03T08:40:27.379Z,1.30
2019-05-03T08:42:56.263Z,1.00
2019-05-03T08:45:25.571Z,0.90
2019-05-03T08:47:55.422Z,1.40
2019-05-03T08:50:25.653Z,1.47
2019-05-03T08:52:55.738Z,1.37
2019-05-03T08:55:25.224Z,1.53
2019-05-03T08:57:55.126Z,1.53
2019-05-03T09:00:26.180Z,1.67
2019-05-03T09:02:55.175Z,1.43
2019-05-03T09:05:25.027Z,1.70
2019-05-03T09:07:54.939Z,2.10
2019-05-03T09:10:26.147Z,1.43
2019-05-03T09:13:08.558Z,1.73
2019-05-03T09:15:39.843Z,1.70
2019-05-03T09:18:08.714Z,1.80
2019-05-03T09:20:37.581Z,2.30
2019-05-03T09:23:06.474Z,2.80
2019-05-03T09:25:36.183Z,2.40
2019-05-03T09:28:06.914Z,2.80
2019-05-03T09:30:37.544Z,1.90
2019-05-03T09:33:09.070Z,3.00
2019-05-03T09:35:37.071Z,2.27
2019-05-03T09:38:06.781Z,3.17
2019-05-03T09:40:35.608Z,3.20
2019-05-03T09:43:05.483Z,3.80
2019-05-03T09:45:35.362Z,3.27
2019-05-03T09:48:05.663Z,3.13
2019-05-03T09:50:35.906Z,4.20
2019-05-03T09:53:05.751Z,3.07
2019-05-03T09:55:38.535Z,6.57
2019-05-03T09:58:07.422Z,4.50
2019-05-03T10:00:36.321Z,4.43
2019-05-03T10:03:05.710Z,2.83
2019-05-03T10:05:35.317Z,2.87
2019-05-03T10:08:05.666Z,6.57
2019-05-03T10:10:54.003Z,2.60
2019-05-03T10:13:23.780Z,1.70
2019-05-03T10:15:54.927Z,2.70
2019-05-03T10:18:25.440Z,2.57
2019-05-03T10:20:56.135Z,3.00
2019-05-03T10:23:35.905Z,3.37
2019-05-03T10:26:05.954Z,2.87
2019-05-03T10:28:34.954Z,3.50
2019-05-03T10:31:07.510Z,2.47
2019-05-03T10:33:44.819Z,2.57
2019-05-03T10:36:15.198Z,2.13
2019-05-03T10:38:45.658Z,3.40
2019-05-03T10:41:14.077Z,2.73
2019-05-03T10:43:44.911Z,4.83
2019-05-03T10:46:15.694Z,2.53
2019-05-03T10:48:45.185Z,3.70
2019-05-03T10:51:15.899Z,2.63
2019-05-03T10:53:49.906Z,3.10
2019-05-03T10:56:23.779Z,2.70
2019-05-03T10:58:54.788Z,2.93
2019-05-03T11:01:25.026Z,3.47
2019-05-03T11:03:54.506Z,4.57
2019-05-03T11:06:25.469Z,4.80
2019-05-03T11:08:54.717Z,3.20
2019-05-03T11:11:25.761Z,4.33
2019-05-03T11:13:54.232Z,3.60
2019-05-03T11:16:23.124Z,3.63
2019-05-03T11:18:52.008Z,2.90
2019-05-03T11:21:28.142Z,3.07
2019-05-03T11:23:51.434Z,2.80
2019-05-03T11:26:20.426Z,2.70
2019-05-03T11:28:49.319Z,4.90
2019-05-03T11:31:35.385Z,3.40
2019-05-03T11:34:07.236Z,3.43
2019-05-03T11:36:45.454Z,3.40
2019-05-03T11:39:14.505Z,2.60
2019-05-03T11:41:46.015Z,3.23
2019-05-03T11:44:32.943Z,2.93
2019-05-03T11:47:01.831Z,2.73
2019-05-03T11:49:30.723Z,3.23
2019-05-03T11:51:59.596Z,3.00
2019-05-03T11:54:28.506Z,2.43
2019-05-03T11:56:58.980Z,2.90
2019-05-03T11:59:27.925Z,3.40
2019-05-03T12:02:04.807Z,4.40
2019-05-03T12:04:35.339Z,2.23
2019-05-03T12:07:06.002Z,5.40
2019-05-03T12:09:35.570Z,4.20
2019-05-03T12:12:04.932Z,4.17
2019-05-03T12:14:34.648Z,6.67
2019-05-03T12:17:18.280Z,3.47
2019-05-03T12:19:37.738Z,3.20
2019-05-03T12:22:07.304Z,3.20
2019-05-03T12:24:37.745Z,3.30
2019-05-03T12:27:07.636Z,5.50
2019-05-03T12:29:36.548Z,4.23
2019-05-03T12:32:05.419Z,3.53
2019-05-03T12:34:35.242Z,7.80
2019-05-03T12:37:05.295Z,3.90
2019-05-03T12:39:35.889Z,3.40
2019-05-03T12:42:05.903Z,3.10
2019-05-03T12:44:35.651Z,2.90
2019-05-03T12:47:06.033Z,2.60
2019-05-03T12:49:35.880Z,2.60
2019-05-03T12:52:05.866Z,3.33
2019-05-03T12:54:35.640Z,3.03
2019-05-03T12:57:06.426Z,2.70
2019-05-03T12:59:36.938Z,2.90
2019-05-03T13:02:07.467Z,2.83
2019-05-03T13:04:37.997Z,2.33
2019-05-03T13:07:17.333Z,2.87
2019-05-03T13:09:47.355Z,5.23
2019-05-03T13:12:17.881Z,4.43
2019-05-03T13:14:46.771Z,5.23
2019-05-03T13:17:17.504Z,8.03
2019-05-03T13:19:46.446Z,6.13
2019-05-03T13:22:15.331Z,5.50
2019-05-03T13:24:45.213Z,5.20
2019-05-03T13:27:14.877Z,5.03
2019-05-03T13:29:45.267Z,5.87
2019-05-03T13:32:14.484Z,5.50
2019-05-03T13:34:44.698Z,6.17
2019-05-03T13:37:15.032Z,7.13
2019-05-03T13:39:45.157Z,11.70
2019-05-03T13:42:14.112Z,7.27
2019-05-03T13:44:44.812Z,6.43
2019-05-03T13:47:15.004Z,7.70
2019-05-03T13:49:44.717Z,7.20
2019-05-03T13:52:14.570Z,6.67
2019-05-03T13:54:45.932Z,6.50
2019-05-03T13:57:15.409Z,6.30
2019-05-03T13:59:44.927Z,7.10
2019-05-03T14:02:18.936Z,5.97
2019-05-03T14:04:52.310Z,6.30
2019-05-03T14:07:15.440Z,5.33
2019-05-03T14:09:45.277Z,5.23
2019-05-03T14:12:15.462Z,6.13
2019-05-03T14:14:55.746Z,6.23
2019-05-03T14:17:25.944Z,5.60
2019-05-03T14:19:56.360Z,5.67
2019-05-03T14:22:26.809Z,4.83
2019-05-03T14:24:55.656Z,5.20
2019-05-03T14:27:25.441Z,5.23
2019-05-03T14:29:54.916Z,5.10
2019-05-03T14:32:28.362Z,6.17
2019-05-03T14:34:54.808Z,5.50
2019-05-03T14:37:23.749Z,4.17
2019-05-03T14:39:54.467Z,5.23
2019-05-03T14:42:24.738Z,4.63
2019-05-03T14:44:55.287Z,5.30
2019-05-03T14:47:25.214Z,5.47
2019-05-03T14:49:54.641Z,5.00
2019-05-03T14:52:25.245Z,4.90
2019-05-03T14:54:55.584Z,4.00
2019-05-03T14:57:38.426Z,4.63
2019-05-03T15:00:16.969Z,4.60
2019-05-03T15:02:50.735Z,4.13
2019-05-03T15:05:17.945Z,4.03
2019-05-03T15:07:46.802Z,4.73
2019-05-03T15:10:15.978Z,4.63
2019-05-03T15:12:45.329Z,3.90
2019-05-03T15:15:15.424Z,6.47
2019-05-03T15:17:45.752Z,6.20
2019-05-03T15:20:14.950Z,7.17
2019-05-03T15:22:45.448Z,6.13
2019-05-03T15:25:14.936Z,5.70
2019-05-03T15:27:44.797Z,4.53
2019-05-03T15:30:15.509Z,4.53
2019-05-03T15:32:56.600Z,4.10
2019-05-03T15:35:15.316Z,3.97
2019-05-03T15:37:52.216Z,5.93
2019-05-03T15:40:21.046Z,4.70
2019-05-03T15:42:51.517Z,4.50
2019-05-03T15:45:25.244Z,4.20
2019-05-03T15:47:58.758Z,4.30
2019-05-03T15:50:27.835Z,4.40
2019-05-03T15:52:56.805Z,5.10
2019-05-03T15:55:25.721Z,4.97
2019-05-03T15:57:55.286Z,4.07
2019-05-03T16:00:24.538Z,4.70
2019-05-03T16:02:54.724Z,5.10
2019-05-03T16:05:25.118Z,3.80
2019-05-03T16:07:55.279Z,4.43
2019-05-03T16:10:24.941Z,3.77
2019-05-03T16:12:54.489Z,4.27
2019-05-03T16:15:24.631Z,3.80
2019-05-03T16:17:54.715Z,4.17
2019-05-03T16:20:25.145Z,3.67
2019-05-03T16:22:54.572Z,4.43
2019-05-03T16:25:25.106Z,4.10
2019-05-03T16:28:04.791Z,6.40
2019-05-03T16:30:41.448Z,3.60
2019-05-03T16:33:22.411Z,4.10
2019-05-03T16:35:40.809Z,4.03
2019-05-03T16:38:09.773Z,4.60
2019-05-03T16:40:38.649Z,4.30
2019-05-03T16:43:08.032Z,4.63
2019-05-03T16:45:36.957Z,4.90
2019-05-03T16:48:05.951Z,5.37
2019-05-03T16:50:34.842Z,5.03
2019-05-03T16:53:05.569Z,5.60
2019-05-03T16:55:35.224Z,6.83
2019-05-03T16:58:04.143Z,5.90
2019-05-03T17:00:35.184Z,7.33
2019-05-03T17:03:05.548Z,10.13
2019-05-03T17:05:51.738Z,8.07
2019-05-03T17:08:31.319Z,7.90
2019-05-03T17:11:07.512Z,6.07
2019-05-03T17:13:36.352Z,8.17
2019-05-03T17:16:06.786Z,6.27
2019-05-03T17:18:35.893Z,6.73
2019-05-03T17:21:06.331Z,6.50
2019-05-03T17:23:35.376Z,8.13
2019-05-03T17:26:04.448Z,6.33
2019-05-03T17:28:35.171Z,7.70
2019-05-03T17:31:04.552Z,6.80
2019-05-03T17:33:34.877Z,8.10
2019-05-03T17:36:05.106Z,6.60
2019-05-03T17:38:35.238Z,6.33
2019-05-03T17:41:21.516Z,7.57
2019-05-03T17:43:54.904Z,7.10
2019-05-03T17:46:25.412Z,6.97
2019-05-03T17:48:55.897Z,6.47
2019-05-03T17:51:38.111Z,8.23
2019-05-03T17:54:17.393Z,7.80
2019-05-03T17:57:04.574Z,7.67
2019-05-03T17:59:35.184Z,6.30
2019-05-03T18:02:21.723Z,6.90
2019-05-03T18:05:08.159Z,6.83
2019-05-03T18:07:45.324Z,6.67
2019-05-03T18:10:15.182Z,9.40
2019-05-03T18:12:45.333Z,7.53
2019-05-03T18:15:14.792Z,7.00
2019-05-03T18:17:44.453Z,10.07
2019-05-03T18:20:15.021Z,7.80
2019-05-03T18:22:44.132Z,7.30
2019-05-03T18:25:14.258Z,6.60
2019-05-03T18:27:44.598Z,7.90
2019-05-03T18:30:13.620Z,7.53
2019-05-03T18:32:42.596Z,7.27
2019-05-03T18:35:11.432Z,6.70
2019-05-03T18:37:40.275Z,7.57
2019-05-03T18:40:09.441Z,6.90
2019-05-03T18:42:44.674Z,6.27
2019-05-03T18:45:15.298Z,5.80
2019-05-03T18:47:45.025Z,5.90
2019-05-03T18:50:13.974Z,6.00
2019-05-03T18:52:44.829Z,6.80
2019-05-03T18:55:13.300Z,6.03
2019-05-03T18:57:44.654Z,6.37
2019-05-03T19:00:15.350Z,6.00
2019-05-03T19:02:44.498Z,5.80
2019-05-03T19:05:15.185Z,5.20
2019-05-03T19:07:51.637Z,5.23
2019-05-03T19:10:22.291Z,5.63
2019-05-03T19:12:58.594Z,6.20
2019-05-03T19:15:28.123Z,4.90
2019-05-03T19:18:10.772Z,5.27
2019-05-03T19:20:39.765Z,4.57
2019-05-03T19:23:08.616Z,4.60
2019-05-03T19:25:46.142Z,4.43
2019-05-03T19:28:08.248Z,4.80
2019-05-03T19:30:38.732Z,4.87
2019-05-03T19:33:07.612Z,5.10
2019-05-03T19:35:36.591Z,5.70
2019-05-03T19:38:05.506Z,4.67
2019-05-03T19:40:35.100Z,5.13
2019-05-03T19:43:05.238Z,5.37
2019-05-03T19:45:35.323Z,4.50
2019-05-03T19:48:04.598Z,4.70
2019-05-03T19:50:35.299Z,4.90
2019-05-03T19:53:06.207Z,4.97
2019-05-03T19:55:35.422Z,6.23
2019-05-03T19:58:05.472Z,5.13
2019-05-03T20:00:41.735Z,5.40
2019-05-03T20:03:12.308Z,6.37
2019-05-03T20:05:59.525Z,5.63
2019-05-03T20:08:38.823Z,5.33
2019-05-03T20:11:15.115Z,5.50
2019-05-03T20:13:45.267Z,6.73
2019-05-03T20:16:15.345Z,4.63
2019-05-03T20:18:45.311Z,5.53
2019-05-03T20:21:15.096Z,5.13
2019-05-03T20:23:46.716Z,4.40
2019-05-03T20:26:15.184Z,5.00
2019-05-03T20:28:44.837Z,5.63
2019-05-03T20:31:14.334Z,4.70
2019-05-03T20:33:43.173Z,5.27
2019-05-03T20:36:12.019Z,4.80
2019-05-03T20:38:40.921Z,4.43
2019-05-03T20:41:09.777Z,5.10
2019-05-03T20:43:44.538Z,4.63
2019-05-03T20:46:20.539Z,5.63
2019-05-03T20:48:51.009Z,4.20
2019-05-03T20:51:19.842Z,4.57
2019-05-03T20:53:48.753Z,5.83
2019-05-03T20:56:17.592Z,8.53
2019-05-03T20:58:46.435Z,5.90
2019-05-03T21:01:15.613Z,5.67
2019-05-03T21:03:44.958Z,5.60
2019-05-03T21:06:15.218Z,7.23
2019-05-03T21:08:52.469Z,5.93
2019-05-03T21:11:14.911Z,6.73
2019-05-03T21:13:45.010Z,8.00
2019-05-03T21:16:26.201Z,6.73
2019-05-03T21:19:02.494Z,6.60
2019-05-03T21:21:41.704Z,6.63
2019-05-03T21:24:14.807Z,6.97
2019-05-03T21:26:45.140Z,6.40
2019-05-03T21:29:15.174Z,6.70
2019-05-03T21:31:44.510Z,7.23
2019-05-03T21:34:14.773Z,6.30
2019-05-03T21:36:45.303Z,6.43
2019-05-03T21:39:14.652Z,9.93
2019-05-03T21:41:45.076Z,7.30
2019-05-03T21:44:15.661Z,7.70
2019-05-03T21:46:46.201Z,6.40
2019-05-03T21:49:16.651Z,6.63
2019-05-03T21:51:45.927Z,6.33
2019-05-03T21:54:15.314Z,5.43
2019-05-03T21:56:44.943Z,5.00
2019-05-03T21:59:13.734Z,6.30
2019-05-03T22:01:45.652Z,6.40
2019-05-03T22:04:15.636Z,7.70
2019-05-03T22:06:44.705Z,7.17
2019-05-03T22:09:13.693Z,8.03
2019-05-03T22:11:44.551Z,5.50
2019-05-03T22:14:15.130Z,8.50
2019-05-03T22:16:48.349Z,6.37
2019-05-03T22:19:19.466Z,5.67
2019-05-03T22:22:05.697Z,7.57
2019-05-03T22:24:36.106Z,5.63
2019-05-03T22:27:07.022Z,6.20
2019-05-03T22:29:36.008Z,5.47
2019-05-03T22:32:05.302Z,6.67
2019-05-03T22:34:34.914Z,7.33
2019-05-03T22:37:03.884Z,6.50
2019-05-03T22:39:32.723Z,6.70
2019-05-03T22:42:01.576Z,7.60
2019-05-03T22:44:31.020Z,7.47
2019-05-03T22:46:59.837Z,6.63
2019-05-03T22:49:28.692Z,6.50
2019-05-03T22:51:57.567Z,6.83
2019-05-03T22:54:26.686Z,7.30
2019-05-03T22:56:55.724Z,9.80
2019-05-03T22:59:25.306Z,8.07
2019-05-03T23:01:54.755Z,7.30
2019-05-03T23:04:25.314Z,7.27
2019-05-03T23:06:55.487Z,9.43
2019-05-03T23:09:25.021Z,9.07
2019-05-03T23:11:55.307Z,8.47
2019-05-03T23:14:25.514Z,12.90
2019-05-03T23:16:54.609Z,9.03
2019-05-03T23:19:23.492Z,8.60
2019-05-03T23:22:04.674Z,8.43
2019-05-03T23:24:35.192Z,9.50
2019-05-03T23:27:05.070Z,9.17
2019-05-03T23:29:34.920Z,9.57
2019-05-03T23:32:04.646Z,10.93
2019-05-03T23:34:35.121Z,9.67
2019-05-03T23:37:05.439Z,11.10
2019-05-03T23:39:34.483Z,9.60
2019-05-03T23:42:05.064Z,9.57
2019-05-03T23:44:35.129Z,10.80
2019-05-03T23:47:08.707Z,10.37
2019-05-03T23:49:37.561Z,10.93
2019-05-03T23:52:25.917Z,9.23
2019-05-03T23:54:56.432Z,10.43
2019-05-03T23:57:25.416Z,9.87
2019-05-03T23:59:54.997Z,9.33
